createdAt,value
2023-01-17T00:00:29.569Z,2.37
2023-01-17T00:02:56.997Z,2.34
2023-01-17T00:05:41.838Z,2.32
2023-01-17T00:08:30.269Z,2.31
2023-01-17T00:10:58.141Z,2.28
2023-01-17T00:13:24.416Z,2.26
2023-01-17T00:15:50.732Z,2.26
2023-01-17T00:18:19.782Z,2.20
2023-01-17T00:21:04.799Z,2.20
2023-01-17T00:23:49.563Z,2.19
2023-01-17T00:26:17.267Z,2.15
2023-01-17T00:28:44.102Z,2.14
2023-01-17T00:31:11.102Z,2.13
2023-01-17T00:33:37.402Z,2.13
2023-01-17T00:36:04.624Z,2.11
2023-01-17T00:38:32.191Z,2.09
2023-01-17T00:41:02.291Z,2.09
2023-01-17T00:43:47.878Z,2.08
2023-01-17T00:46:32.809Z,2.07
2023-01-17T00:49:17.823Z,2.06
2023-01-17T00:52:02.684Z,2.08
2023-01-17T00:54:47.545Z,2.06
2023-01-17T00:57:32.320Z,2.05
2023-01-17T01:00:17.028Z,2.01
2023-01-17T01:03:01.961Z,1.98
2023-01-17T01:05:46.789Z,1.98
2023-01-17T01:08:40.298Z,1.95
2023-01-17T01:11:26.534Z,1.93
2023-01-17T01:14:11.860Z,1.91
2023-01-17T01:16:57.139Z,1.89
2023-01-17T01:19:41.930Z,1.88
2023-01-17T01:22:26.735Z,1.88
2023-01-17T01:25:11.604Z,1.89
2023-01-17T01:27:56.497Z,1.89
2023-01-17T01:30:41.293Z,1.90
2023-01-17T01:33:19.441Z,1.89
2023-01-17T01:35:46.577Z,1.89
2023-01-17T01:38:12.954Z,1.88
2023-01-17T01:40:47.079Z,1.88
2023-01-17T01:43:14.245Z,1.85
2023-01-17T01:45:40.795Z,1.85
2023-01-17T01:48:13.939Z,1.85
2023-01-17T01:50:40.292Z,1.83
2023-01-17T01:53:07.574Z,1.77
2023-01-17T01:55:35.620Z,1.73
2023-01-17T01:58:04.309Z,1.71
2023-01-17T02:00:33.382Z,1.66
2023-01-17T02:03:02.427Z,1.64
2023-01-17T02:05:29.152Z,1.60
2023-01-17T02:07:55.515Z,1.59
2023-01-17T02:10:21.774Z,1.55
2023-01-17T02:12:48.794Z,1.55
2023-01-17T02:15:15.109Z,1.51
2023-01-17T02:17:41.349Z,1.52
2023-01-17T02:20:13.400Z,1.53
2023-01-17T02:22:53.597Z,1.44
2023-01-17T02:25:38.555Z,1.43
2023-01-17T02:28:15.229Z,1.33
2023-01-17T02:30:54.315Z,1.23
2023-01-17T02:33:44.458Z,1.28
2023-01-17T02:36:17.687Z,1.28
2023-01-17T02:38:52.308Z,1.27
2023-01-17T02:41:21.565Z,1.24
2023-01-17T02:43:51.483Z,1.26
2023-01-17T02:46:17.920Z,1.21
2023-01-17T02:48:44.749Z,1.23
2023-01-17T02:51:29.758Z,1.21
2023-01-17T02:54:07.113Z,1.26
2023-01-17T02:56:52.178Z,1.24
2023-01-17T02:59:40.209Z,1.22
2023-01-17T03:02:13.390Z,1.21
2023-01-17T03:04:48.953Z,1.19
2023-01-17T03:07:17.515Z,1.16
2023-01-17T03:09:45.832Z,1.15
2023-01-17T03:12:12.847Z,1.12
2023-01-17T03:14:39.168Z,1.09
2023-01-17T03:17:05.456Z,1.01
2023-01-17T03:19:31.767Z,0.98
2023-01-17T03:21:58.118Z,0.97
2023-01-17T03:24:24.403Z,0.98
2023-01-17T03:26:50.655Z,0.98
2023-01-17T03:29:16.974Z,0.98
2023-01-17T03:31:43.265Z,0.95
2023-01-17T03:34:09.575Z,0.94
2023-01-17T03:36:35.853Z,0.92
2023-01-17T03:39:02.880Z,0.95
2023-01-17T03:41:29.352Z,0.94
2023-01-17T03:43:55.816Z,0.94
2023-01-17T03:46:28.574Z,0.95
2023-01-17T03:48:54.851Z,0.95
2023-01-17T03:51:24.065Z,0.98
2023-01-17T03:53:51.832Z,1.01
2023-01-17T03:56:18.567Z,1.00
2023-01-17T03:58:44.830Z,1.00
2023-01-17T04:01:17.185Z,1.03
2023-01-17T04:03:43.519Z,1.01
2023-01-17T04:06:12.480Z,1.01
2023-01-17T04:08:38.795Z,1.02
2023-01-17T04:11:05.280Z,1.07
2023-01-17T04:13:31.541Z,1.06
2023-01-17T04:15:57.929Z,1.05
2023-01-17T04:18:24.940Z,1.07
2023-01-17T04:20:51.532Z,1.07
2023-01-17T04:23:18.068Z,1.08
2023-01-17T04:25:46.142Z,1.08
2023-01-17T04:28:12.851Z,1.10
2023-01-17T04:30:41.893Z,1.11
2023-01-17T04:33:08.227Z,1.14
2023-01-17T04:35:37.468Z,1.14
2023-01-17T04:38:04.033Z,1.15
2023-01-17T04:40:30.317Z,1.16
2023-01-17T04:42:57.653Z,1.17
2023-01-17T04:45:23.936Z,1.21
2023-01-17T04:47:50.193Z,1.19
2023-01-17T04:50:16.869Z,1.21
2023-01-17T04:52:43.130Z,1.24
2023-01-17T04:55:09.567Z,1.28
2023-01-17T04:57:35.911Z,1.33
2023-01-17T05:00:02.378Z,1.34
2023-01-17T05:02:28.704Z,1.37
2023-01-17T05:04:55.017Z,1.38
2023-01-17T05:07:21.287Z,1.36
2023-01-17T05:09:47.648Z,1.39
2023-01-17T05:12:13.948Z,1.41
2023-01-17T05:14:40.269Z,1.41
2023-01-17T05:17:07.656Z,1.40
2023-01-17T05:19:34.004Z,1.41
2023-01-17T05:22:03.863Z,1.41
2023-01-17T05:24:31.040Z,1.44
2023-01-17T05:27:02.898Z,1.42
2023-01-17T05:29:29.424Z,1.44
2023-01-17T05:31:55.752Z,1.47
2023-01-17T05:34:22.051Z,1.49
2023-01-17T05:36:48.324Z,1.53
2023-01-17T05:39:14.610Z,1.53
2023-01-17T05:41:40.944Z,1.54
2023-01-17T05:44:07.283Z,1.57
2023-01-17T05:46:33.603Z,1.60
2023-01-17T05:48:59.935Z,1.63
2023-01-17T05:51:26.214Z,1.65
2023-01-17T05:53:52.490Z,1.67
2023-01-17T05:56:18.767Z,1.70
2023-01-17T05:58:45.077Z,1.73
2023-01-17T06:01:11.679Z,1.76
2023-01-17T06:03:37.964Z,1.78
2023-01-17T06:06:04.419Z,1.79
2023-01-17T06:08:30.704Z,1.80
2023-01-17T06:10:58.579Z,1.83
2023-01-17T06:13:24.871Z,1.86
2023-01-17T06:15:51.315Z,1.88
2023-01-17T06:18:17.872Z,1.90
2023-01-17T06:20:44.560Z,1.92
2023-01-17T06:23:12.010Z,1.93
2023-01-17T06:25:43.663Z,1.94
2023-01-17T06:28:10.570Z,1.93
2023-01-17T06:30:37.248Z,1.95
2023-01-17T06:33:03.711Z,1.94
2023-01-17T06:35:30.185Z,1.95
2023-01-17T06:37:58.191Z,1.95
2023-01-17T06:40:24.987Z,1.98
2023-01-17T06:42:51.276Z,1.99
2023-01-17T06:45:17.808Z,1.89
2023-01-17T06:47:44.229Z,1.77
2023-01-17T06:50:12.590Z,1.56
2023-01-17T06:52:39.631Z,1.43
2023-01-17T06:55:06.407Z,1.35
2023-01-17T06:57:33.106Z,1.27
2023-01-17T06:59:59.430Z,1.20
2023-01-17T07:02:26.120Z,1.19
2023-01-17T07:04:52.461Z,1.15
2023-01-17T07:07:18.751Z,1.13
2023-01-17T07:09:45.100Z,1.14
2023-01-17T07:12:11.380Z,1.16
2023-01-17T07:14:37.641Z,1.19
2023-01-17T07:17:04.007Z,1.21
2023-01-17T07:19:30.301Z,1.14
2023-01-17T07:21:56.552Z,1.01
2023-01-17T07:24:22.811Z,0.90
2023-01-17T07:26:50.331Z,0.83
2023-01-17T07:29:17.081Z,0.72
2023-01-17T07:31:43.468Z,0.61
2023-01-17T07:34:09.852Z,0.53
2023-01-17T07:36:36.573Z,0.49
2023-01-17T07:39:06.196Z,0.47
2023-01-17T07:41:41.256Z,0.47
2023-01-17T07:44:22.537Z,0.43
2023-01-17T07:46:51.810Z,0.36
2023-01-17T07:49:18.702Z,0.37
2023-01-17T07:51:46.195Z,0.34
2023-01-17T07:54:12.587Z,0.29
2023-01-17T07:56:40.034Z,0.26
2023-01-17T07:59:06.421Z,0.25
2023-01-17T08:01:32.740Z,0.21
2023-01-17T08:03:59.114Z,0.25
2023-01-17T08:06:25.705Z,0.24
2023-01-17T08:08:54.963Z,0.27
2023-01-17T08:11:21.230Z,0.31
2023-01-17T08:13:47.971Z,0.30
2023-01-17T08:16:15.263Z,0.33
2023-01-17T08:18:41.734Z,0.32
2023-01-17T08:21:12.739Z,0.33
2023-01-17T08:23:38.996Z,0.37
2023-01-17T08:26:05.331Z,0.37
2023-01-17T08:28:31.595Z,0.41
2023-01-17T08:30:57.890Z,0.44
2023-01-17T08:33:24.223Z,0.44
2023-01-17T08:35:51.638Z,0.45
2023-01-17T08:38:18.572Z,0.46
2023-01-17T08:40:44.835Z,0.48
2023-01-17T08:43:11.205Z,0.48
2023-01-17T08:45:37.530Z,0.55
2023-01-17T08:48:04.048Z,0.60
2023-01-17T08:50:30.411Z,0.63
2023-01-17T08:53:01.051Z,0.67
2023-01-17T08:55:27.695Z,0.67
2023-01-17T08:57:54.038Z,0.70
2023-01-17T09:00:20.572Z,0.74
2023-01-17T09:02:46.857Z,0.81
2023-01-17T09:05:13.503Z,0.85
2023-01-17T09:07:39.803Z,0.94
2023-01-17T09:10:06.297Z,0.97
2023-01-17T09:12:33.224Z,1.00
2023-01-17T09:14:59.634Z,1.04
2023-01-17T09:17:26.061Z,1.09
2023-01-17T09:19:52.321Z,1.16
2023-01-17T09:22:18.581Z,1.22
2023-01-17T09:24:44.873Z,1.28
2023-01-17T09:27:11.153Z,1.32
2023-01-17T09:29:37.498Z,1.30
2023-01-17T09:32:03.936Z,1.34
2023-01-17T09:34:30.540Z,1.42
2023-01-17T09:36:57.653Z,1.42
2023-01-17T09:39:24.099Z,1.42
2023-01-17T09:41:56.352Z,1.40
2023-01-17T09:44:22.644Z,1.43
2023-01-17T09:46:50.001Z,1.32
2023-01-17T09:49:22.355Z,1.33
2023-01-17T09:51:48.666Z,1.29
2023-01-17T09:54:20.578Z,1.29
2023-01-17T09:56:49.827Z,1.33
2023-01-17T09:59:19.320Z,1.34
2023-01-17T10:01:52.935Z,1.33
2023-01-17T10:04:34.700Z,1.34
2023-01-17T10:07:08.987Z,1.39
2023-01-17T10:09:38.290Z,1.40
2023-01-17T10:12:23.489Z,1.45
2023-01-17T10:14:55.771Z,1.41
2023-01-17T10:17:40.935Z,1.48
2023-01-17T10:20:07.213Z,1.60
2023-01-17T10:22:33.462Z,1.66
2023-01-17T10:25:08.925Z,1.80
2023-01-17T10:27:37.846Z,1.93
2023-01-17T10:30:13.448Z,1.94
2023-01-17T10:32:42.343Z,1.93
2023-01-17T10:35:17.303Z,1.94
2023-01-17T10:37:44.027Z,2.02
2023-01-17T10:40:21.362Z,2.13
2023-01-17T10:42:59.430Z,2.22
2023-01-17T10:45:28.798Z,2.23
2023-01-17T10:48:02.540Z,2.26
2023-01-17T10:50:29.155Z,2.20
2023-01-17T10:53:18.506Z,2.12
2023-01-17T10:55:50.755Z,2.11
2023-01-17T10:58:17.065Z,2.13
2023-01-17T11:00:46.389Z,2.11
2023-01-17T11:03:13.998Z,2.15
2023-01-17T11:05:42.729Z,2.16
2023-01-17T11:08:10.461Z,2.13
2023-01-17T11:10:37.886Z,2.11
2023-01-17T11:13:06.099Z,2.07
2023-01-17T11:15:34.956Z,1.98
2023-01-17T11:18:02.583Z,2.03
2023-01-17T11:20:43.003Z,2.11
2023-01-17T11:23:23.870Z,2.29
2023-01-17T11:26:02.335Z,2.52
2023-01-17T11:28:30.676Z,2.71
2023-01-17T11:30:57.255Z,2.79
2023-01-17T11:33:33.949Z,2.78
2023-01-17T11:36:00.332Z,2.72
2023-01-17T11:38:26.731Z,2.76
2023-01-17T11:41:13.211Z,2.71
2023-01-17T11:43:50.216Z,2.70
2023-01-17T11:46:20.538Z,2.65
2023-01-17T11:48:51.423Z,2.56
2023-01-17T11:51:20.442Z,2.55
2023-01-17T11:53:49.551Z,2.54
2023-01-17T11:56:20.742Z,2.43
2023-01-17T11:58:47.206Z,2.46
2023-01-17T12:01:13.534Z,2.43
2023-01-17T12:03:42.968Z,2.37
2023-01-17T12:06:27.499Z,2.27
2023-01-17T12:09:03.182Z,2.29
2023-01-17T12:12:02.017Z,2.26
2023-01-17T12:14:36.420Z,2.22
2023-01-17T12:17:18.420Z,2.28
2023-01-17T12:19:48.836Z,2.24
2023-01-17T12:22:20.286Z,2.06
2023-01-17T12:24:46.527Z,1.89
2023-01-17T12:27:19.334Z,1.81
2023-01-17T12:30:03.085Z,1.64
2023-01-17T12:32:36.374Z,1.34
2023-01-17T12:35:08.694Z,1.17
2023-01-17T12:37:39.882Z,1.02
2023-01-17T12:40:24.804Z,0.89
2023-01-17T12:43:07.722Z,0.73
2023-01-17T12:45:43.972Z,0.69
2023-01-17T12:48:11.832Z,0.60
2023-01-17T12:50:41.049Z,0.69
2023-01-17T12:53:23.766Z,0.76
2023-01-17T12:55:50.047Z,0.91
2023-01-17T12:58:20.515Z,1.39
2023-01-17T13:00:51.258Z,2.03
2023-01-17T13:03:25.892Z,2.36
2023-01-17T13:05:52.357Z,2.55
2023-01-17T13:08:21.515Z,2.58
2023-01-17T13:10:54.989Z,2.72
2023-01-17T13:13:24.034Z,2.41
2023-01-17T13:15:52.270Z,2.47
2023-01-17T13:18:23.101Z,2.58
2023-01-17T13:20:57.277Z,2.81
2023-01-17T13:23:32.785Z,2.97
2023-01-17T13:25:59.856Z,2.68
2023-01-17T13:28:41.215Z,2.60
2023-01-17T13:31:18.519Z,2.48
2023-01-17T13:34:03.778Z,2.44
2023-01-17T13:36:36.192Z,2.29
2023-01-17T13:39:08.507Z,2.26
2023-01-17T13:41:43.895Z,2.23
2023-01-17T13:44:27.111Z,2.08
2023-01-17T13:46:56.476Z,1.75
2023-01-17T13:49:29.082Z,1.57
2023-01-17T13:52:04.247Z,1.50
2023-01-17T13:54:34.425Z,1.31
2023-01-17T13:57:19.208Z,1.10
2023-01-17T13:59:45.469Z,0.87
2023-01-17T14:02:30.613Z,0.74
2023-01-17T14:05:10.488Z,0.66
2023-01-17T14:07:43.745Z,0.58
2023-01-17T14:10:40.728Z,0.48
2023-01-17T14:13:25.683Z,0.32
2023-01-17T14:15:52.168Z,0.21
2023-01-17T14:18:31.834Z,0.16
2023-01-17T14:21:07.069Z,0.10
2023-01-17T14:23:37.648Z,0.08
2023-01-17T14:26:19.787Z,0.02
2023-01-17T14:28:46.080Z,-0.01
2023-01-17T14:31:13.948Z,-0.01
2023-01-17T14:33:41.023Z,-0.05
2023-01-17T14:36:14.253Z,-0.10
2023-01-17T14:38:42.312Z,-0.10
2023-01-17T14:41:09.582Z,-0.12
2023-01-17T14:43:38.804Z,-0.12
2023-01-17T14:46:06.788Z,-0.09
2023-01-17T14:48:33.405Z,-0.08
2023-01-17T14:51:00.252Z,-0.08
2023-01-17T14:53:28.279Z,-0.16
2023-01-17T14:55:56.381Z,-0.17
2023-01-17T14:58:25.003Z,-0.15
2023-01-17T15:01:02.398Z,-0.17
2023-01-17T15:03:31.684Z,-0.27
2023-01-17T15:06:10.778Z,-0.25
2023-01-17T15:08:37.287Z,-0.27
2023-01-17T15:11:05.851Z,-0.30
2023-01-17T15:13:44.365Z,-0.33
2023-01-17T15:16:20.819Z,-0.37
2023-01-17T15:18:47.434Z,-0.40
2023-01-17T15:21:16.130Z,-0.43
2023-01-17T15:24:03.487Z,-0.48
2023-01-17T15:26:33.373Z,-0.52
2023-01-17T15:29:04.292Z,-0.53
2023-01-17T15:31:44.305Z,-0.50
2023-01-17T15:34:21.114Z,-0.52
2023-01-17T15:36:48.597Z,-0.55
2023-01-17T15:39:18.923Z,-0.52
2023-01-17T15:41:45.215Z,-0.51
2023-01-17T15:44:42.600Z,-0.58
2023-01-17T15:47:26.273Z,-0.58
2023-01-17T15:49:53.111Z,-0.58
2023-01-17T15:52:21.407Z,-0.63
2023-01-17T15:54:53.389Z,-0.66
2023-01-17T15:57:24.150Z,-0.66
2023-01-17T15:59:55.225Z,-0.68
2023-01-17T16:02:33.603Z,-0.66
2023-01-17T16:05:00.903Z,-0.64
2023-01-17T16:07:34.480Z,-0.67
2023-01-17T16:10:31.611Z,-0.68
2023-01-17T16:12:58.399Z,-0.69
2023-01-17T16:15:25.403Z,-0.69
2023-01-17T16:17:53.771Z,-0.68
2023-01-17T16:20:22.260Z,-0.61
2023-01-17T16:22:49.478Z,-0.56
2023-01-17T16:25:20.055Z,-0.47
2023-01-17T16:27:47.218Z,-0.42
2023-01-17T16:30:16.143Z,-0.45
2023-01-17T16:32:43.155Z,-0.60
2023-01-17T16:35:18.878Z,-0.72
2023-01-17T16:37:48.757Z,-0.84
2023-01-17T16:40:16.125Z,-0.90
2023-01-17T16:42:49.782Z,-0.99
2023-01-17T16:45:23.472Z,-1.04
2023-01-17T16:47:50.037Z,-1.10
2023-01-17T16:50:18.347Z,-1.13
2023-01-17T16:52:44.618Z,-1.16
2023-01-17T16:55:12.247Z,-1.17
2023-01-17T16:57:38.800Z,-1.16
2023-01-17T17:00:05.777Z,-1.15
2023-01-17T17:02:32.409Z,-1.14
2023-01-17T17:04:59.077Z,-1.11
2023-01-17T17:07:25.360Z,-1.12
2023-01-17T17:09:51.844Z,-1.10
2023-01-17T17:12:18.096Z,-1.08
2023-01-17T17:14:44.385Z,-1.06
2023-01-17T17:17:10.675Z,-1.07
2023-01-17T17:19:37.725Z,-1.08
2023-01-17T17:22:06.330Z,-1.10
2023-01-17T17:24:33.152Z,-1.11
2023-01-17T17:26:59.439Z,-1.11
2023-01-17T17:29:25.726Z,-1.11
2023-01-17T17:31:52.134Z,-1.13
2023-01-17T17:34:18.399Z,-1.13
2023-01-17T17:36:44.923Z,-1.16
2023-01-17T17:39:13.345Z,-1.19
2023-01-17T17:41:41.262Z,-1.22
2023-01-17T17:44:08.232Z,-1.24
2023-01-17T17:46:36.318Z,-1.25
2023-01-17T17:49:03.485Z,-1.26
2023-01-17T17:51:29.763Z,-1.27
2023-01-17T17:54:00.459Z,-1.26
2023-01-17T17:56:27.491Z,-1.26
2023-01-17T17:58:53.905Z,-1.23
2023-01-17T18:01:22.790Z,-1.21
2023-01-17T18:03:50.050Z,-1.21
2023-01-17T18:06:17.571Z,-1.22
2023-01-17T18:08:44.130Z,-1.22
2023-01-17T18:11:14.152Z,-1.21
2023-01-17T18:13:41.518Z,-1.19
2023-01-17T18:16:09.516Z,-1.18
2023-01-17T18:18:38.889Z,-1.16
2023-01-17T18:21:09.905Z,-1.14
2023-01-17T18:23:40.228Z,-1.12
2023-01-17T18:26:15.633Z,-1.12
2023-01-17T18:28:41.952Z,-1.14
2023-01-17T18:31:08.292Z,-1.13
2023-01-17T18:33:35.554Z,-1.16
2023-01-17T18:36:04.606Z,-1.16
2023-01-17T18:38:38.129Z,-1.15
2023-01-17T18:41:05.592Z,-1.16
2023-01-17T18:43:32.187Z,-1.16
2023-01-17T18:45:58.534Z,-1.18
2023-01-17T18:48:24.975Z,-1.18
2023-01-17T18:50:54.940Z,-1.20
2023-01-17T18:53:22.512Z,-1.20
2023-01-17T18:55:57.180Z,-1.21
2023-01-17T18:58:24.150Z,-1.22
2023-01-17T19:00:50.978Z,-1.21
2023-01-17T19:03:18.855Z,-1.22
2023-01-17T19:05:46.001Z,-1.22
2023-01-17T19:08:12.525Z,-1.22
2023-01-17T19:10:38.810Z,-1.23
2023-01-17T19:13:05.113Z,-1.24
2023-01-17T19:15:31.442Z,-1.25
2023-01-17T19:17:57.934Z,-1.26
2023-01-17T19:20:24.540Z,-1.26
2023-01-17T19:22:51.128Z,-1.29
2023-01-17T19:25:17.480Z,-1.30
2023-01-17T19:27:48.070Z,-1.31
2023-01-17T19:30:14.365Z,-1.31
2023-01-17T19:32:40.675Z,-1.32
2023-01-17T19:35:08.926Z,-1.32
2023-01-17T19:37:35.197Z,-1.31
2023-01-17T19:40:01.594Z,-1.31
2023-01-17T19:42:28.636Z,-1.27
2023-01-17T19:44:54.918Z,-1.27
2023-01-17T19:47:21.197Z,-1.29
2023-01-17T19:49:47.491Z,-1.23
2023-01-17T19:52:13.755Z,-1.24
2023-01-17T19:54:40.041Z,-1.24
2023-01-17T19:57:06.313Z,-1.26
2023-01-17T19:59:32.578Z,-1.25
2023-01-17T20:02:01.093Z,-1.26
2023-01-17T20:04:27.581Z,-1.26
2023-01-17T20:06:53.851Z,-1.26
2023-01-17T20:09:20.319Z,-1.28
2023-01-17T20:11:48.762Z,-1.31
2023-01-17T20:14:16.534Z,-1.33
2023-01-17T20:16:44.920Z,-1.35
2023-01-17T20:19:11.239Z,-1.36
2023-01-17T20:21:37.805Z,-1.35
2023-01-17T20:24:04.347Z,-1.35
2023-01-17T20:26:34.872Z,-1.37
2023-01-17T20:29:02.492Z,-1.37
2023-01-17T20:31:28.943Z,-1.38
2023-01-17T20:33:56.019Z,-1.40
2023-01-17T20:36:23.611Z,-1.40
2023-01-17T20:38:49.952Z,-1.42
2023-01-17T20:41:20.637Z,-1.43
2023-01-17T20:43:48.199Z,-1.44
2023-01-17T20:46:15.523Z,-1.44
2023-01-17T20:48:46.230Z,-1.44
2023-01-17T20:51:12.918Z,-1.44
2023-01-17T20:53:39.917Z,-1.44
2023-01-17T20:56:08.645Z,-1.45
2023-01-17T20:58:35.101Z,-1.47
2023-01-17T21:01:01.580Z,-1.46
2023-01-17T21:03:33.648Z,-1.48
2023-01-17T21:06:01.588Z,-1.50
2023-01-17T21:08:31.895Z,-1.51
2023-01-17T21:10:58.541Z,-1.51
2023-01-17T21:13:24.859Z,-1.52
2023-01-17T21:16:06.784Z,-1.55
2023-01-17T21:18:33.053Z,-1.52
2023-01-17T21:21:03.891Z,-1.52
2023-01-17T21:23:30.206Z,-1.55
2023-01-17T21:25:57.529Z,-1.57
2023-01-17T21:28:24.988Z,-1.59
2023-01-17T21:30:52.103Z,-1.58
2023-01-17T21:33:19.326Z,-1.58
2023-01-17T21:35:45.819Z,-1.60
2023-01-17T21:38:13.711Z,-1.61
2023-01-17T21:40:40.325Z,-1.63
2023-01-17T21:43:07.468Z,-1.66
2023-01-17T21:45:40.807Z,-1.64
2023-01-17T21:48:07.783Z,-1.65
2023-01-17T21:50:34.491Z,-1.64
2023-01-17T21:53:00.847Z,-1.66
2023-01-17T21:55:45.610Z,-1.66
2023-01-17T21:58:34.597Z,-1.65
2023-01-17T22:01:21.680Z,-1.65
2023-01-17T22:03:52.651Z,-1.66
2023-01-17T22:06:19.926Z,-1.66
2023-01-17T22:08:46.380Z,-1.66
2023-01-17T22:11:14.353Z,-1.66
2023-01-17T22:13:41.819Z,-1.67
2023-01-17T22:16:10.339Z,-1.66
2023-01-17T22:18:38.200Z,-1.68
2023-01-17T22:21:06.425Z,-1.67
2023-01-17T22:23:33.039Z,-1.66
2023-01-17T22:26:07.004Z,-1.65
2023-01-17T22:28:33.777Z,-1.63
2023-01-17T22:31:17.322Z,-1.62
2023-01-17T22:33:44.463Z,-1.62
2023-01-17T22:36:13.720Z,-1.63
2023-01-17T22:38:40.934Z,-1.63
2023-01-17T22:41:08.478Z,-1.63
2023-01-17T22:43:38.533Z,-1.62
2023-01-17T22:46:06.023Z,-1.63
2023-01-17T22:48:36.144Z,-1.65
2023-01-17T22:51:03.373Z,-1.65
2023-01-17T22:53:30.354Z,-1.67
2023-01-17T22:56:07.046Z,-1.66
2023-01-17T22:58:33.723Z,-1.66
2023-01-17T23:01:03.870Z,-1.67
2023-01-17T23:03:30.549Z,-1.69
2023-01-17T23:05:57.285Z,-1.72
2023-01-17T23:08:23.921Z,-1.72
2023-01-17T23:11:08.794Z,-1.72
2023-01-17T23:13:35.044Z,-1.72
2023-01-17T23:16:22.908Z,-1.72
2023-01-17T23:19:07.997Z,-1.72
2023-01-17T23:21:54.318Z,-1.72
2023-01-17T23:24:20.571Z,-1.72
2023-01-17T23:27:06.820Z,-1.71
2023-01-17T23:29:33.081Z,-1.71
2023-01-17T23:31:59.341Z,-1.71
2023-01-17T23:34:25.658Z,-1.72
2023-01-17T23:36:51.911Z,-1.71
2023-01-17T23:39:18.179Z,-1.71
2023-01-17T23:42:03.127Z,-1.74
2023-01-17T23:44:31.759Z,-1.75
2023-01-17T23:47:01.008Z,-1.77
2023-01-17T23:49:29.480Z,-1.80
2023-01-17T23:51:55.740Z,-1.83
2023-01-17T23:54:22.004Z,-1.87
2023-01-17T23:56:48.297Z,-1.90
2023-01-17T23:59:14.915Z,-1.95
